<?xml version="1.0" encoding="UTF-8"?>
<gpx creator="Wikiloc - https://www.wikiloc.com" version="1.1" xmlns="http://www.topografix.com/GPX/1/1" xmlns:xsi="http://www.w3.org/2001/XMLSchema-instance" xsi:schemaLocation="http://www.topografix.com/GPX/1/1 http://www.topografix.com/GPX/1/1/gpx.xsd">
  <wpt lat="38.172980" lon="-6.670270">
    <ele>611.4</ele>
    <time>2010-01-18T12:53:42Z</time>
    <name>ARROYO</name>
    <cmt>15-ENE-10 10:31:25</cmt>
    <desc>15-ENE-10 10:31:25</desc>
  </wpt>
  <wpt lat="38.174130" lon="-6.661680">
    <ele>584.9</ele>
    <time>2010-01-18T12:53:42Z</time>
    <name>ARROYO</name>
    <cmt>15-ENE-10 11:23:42</cmt>
    <desc>15-ENE-10 11:23:42</desc>
  </wpt>
  <wpt lat="38.171000" lon="-6.663940">
    <ele>615.1</ele>
    <time>2010-01-18T12:53:42Z</time>
    <name>CAMINO</name>
    <cmt>15-ENE-10 10:21:18</cmt>
    <desc>15-ENE-10 10:21:18</desc>
  </wpt>
  <wpt lat="38.179460" lon="-6.676350">
    <ele>631.9</ele>
    <time>2010-01-18T12:53:42Z</time>
    <name>CANADIENSE</name>
    <cmt>15-ENE-10 10:57:08</cmt>
    <desc>15-ENE-10 10:57:08</desc>
  </wpt>
  <wpt lat="38.178080" lon="-6.675980">
    <ele>627.0</ele>
    <time>2010-01-18T12:53:42Z</time>
    <name>CANADIENSE</name>
    <cmt>15-ENE-10 10:48:30</cmt>
    <desc>15-ENE-10 10:48:30</desc>
  </wpt>
  <wpt lat="38.172920" lon="-6.657720">
    <ele>586.1</ele>
    <time>2010-01-18T12:53:42Z</time>
    <name>CALLEBARRANCOS</name>
    <cmt>15-ENE-10 11:38:57</cmt>
    <desc>15-ENE-10 11:38:57</desc>
  </wpt>
  <wpt lat="38.170430" lon="-6.660430">
    <ele>585.2</ele>
    <time>2010-01-18T12:53:42Z</time>
    <name>CTRA</name>
    <cmt>15-ENE-10 10:13:38</cmt>
    <desc>15-ENE-10 10:13:38</desc>
  </wpt>
  <wpt lat="38.173200" lon="-6.660730">
    <ele>588.9</ele>
    <time>2010-01-18T12:53:42Z</time>
    <name>ERMITA</name>
    <cmt>15-ENE-10 11:25:52</cmt>
    <desc>15-ENE-10 11:25:52</desc>
  </wpt>
  <wpt lat="38.170420" lon="-6.659600">
    <ele>584.0</ele>
    <time>2010-01-18T12:53:42Z</time>
    <name>PANELINICIO</name>
    <cmt>15-ENE-10 10:07:04</cmt>
    <desc>15-ENE-10 10:07:04</desc>
  </wpt>
  <wpt lat="38.174020" lon="-6.672700">
    <ele>620.3</ele>
    <time>2010-01-18T12:53:42Z</time>
    <name>PUENTE</name>
    <cmt>15-ENE-10 10:38:52</cmt>
    <desc>15-ENE-10 10:38:52</desc>
  </wpt>
  <wpt lat="38.172720" lon="-6.658620">
    <ele>580.0</ele>
    <time>2010-01-18T12:53:42Z</time>
    <name>RUINAS</name>
    <cmt>15-ENE-10 11:31:59</cmt>
    <desc>15-ENE-10 11:31:59</desc>
  </wpt>
  <trk>
    <name>SL-BA 151 'Jetrero - Las Carrascosas' (Fregenal de la Sierra)</name>
    <cmt>Más información en www.fexme.com</cmt>
    <desc>Más información en www.fexme.com</desc>
    <trkseg>
      <trkpt lat="38.170460" lon="-6.659550">
        <ele>582.2</ele>
        <time>2010-01-15T10:06:45Z</time>
      </trkpt>
      <trkpt lat="38.170430" lon="-6.659600">
        <ele>586.5</ele>
        <time>2010-01-15T10:11:40Z</time>
      </trkpt>
      <trkpt lat="38.170460" lon="-6.659700">
        <ele>585.6</ele>
        <time>2010-01-15T10:11:51Z</time>
      </trkpt>
      <trkpt lat="38.170460" lon="-6.659750">
        <ele>583.2</ele>
        <time>2010-01-15T10:12:09Z</time>
      </trkpt>
      <trkpt lat="38.170430" lon="-6.659840">
        <ele>578.8</ele>
        <time>2010-01-15T10:12:42Z</time>
      </trkpt>
      <trkpt lat="38.170430" lon="-6.659910">
        <ele>582.7</ele>
        <time>2010-01-15T10:13:00Z</time>
      </trkpt>
      <trkpt lat="38.170430" lon="-6.660190">
        <ele>583.7</ele>
        <time>2010-01-15T10:13:20Z</time>
      </trkpt>
      <trkpt lat="38.170430" lon="-6.660240">
        <ele>583.7</ele>
        <time>2010-01-15T10:13:24Z</time>
      </trkpt>
      <trkpt lat="38.170440" lon="-6.660260">
        <ele>583.7</ele>
        <time>2010-01-15T10:13:26Z</time>
      </trkpt>
      <trkpt lat="38.170420" lon="-6.660660">
        <ele>587.0</ele>
        <time>2010-01-15T10:13:55Z</time>
      </trkpt>
      <trkpt lat="38.170400" lon="-6.660780">
        <ele>588.9</ele>
        <time>2010-01-15T10:14:14Z</time>
      </trkpt>
      <trkpt lat="38.170500" lon="-6.660810">
        <ele>591.3</ele>
        <time>2010-01-15T10:14:33Z</time>
      </trkpt>
      <trkpt lat="38.170490" lon="-6.660940">
        <ele>592.8</ele>
        <time>2010-01-15T10:14:44Z</time>
      </trkpt>
      <trkpt lat="38.170490" lon="-6.661250">
        <ele>591.8</ele>
        <time>2010-01-15T10:15:04Z</time>
      </trkpt>
      <trkpt lat="38.170450" lon="-6.661870">
        <ele>593.3</ele>
        <time>2010-01-15T10:15:43Z</time>
      </trkpt>
      <trkpt lat="38.170380" lon="-6.662080">
        <ele>591.3</ele>
        <time>2010-01-15T10:15:55Z</time>
      </trkpt>
      <trkpt lat="38.170480" lon="-6.662220">
        <ele>592.3</ele>
        <time>2010-01-15T10:16:08Z</time>
      </trkpt>
      <trkpt lat="38.170460" lon="-6.662610">
        <ele>593.3</ele>
        <time>2010-01-15T10:16:30Z</time>
      </trkpt>
      <trkpt lat="38.170450" lon="-6.662640">
        <ele>592.3</ele>
        <time>2010-01-15T10:16:33Z</time>
      </trkpt>
      <trkpt lat="38.170460" lon="-6.662730">
        <ele>592.8</ele>
        <time>2010-01-15T10:16:39Z</time>
      </trkpt>
      <trkpt lat="38.170460" lon="-6.662950">
        <ele>596.2</ele>
        <time>2010-01-15T10:17:00Z</time>
      </trkpt>
      <trkpt lat="38.170520" lon="-6.663090">
        <ele>597.1</ele>
        <time>2010-01-15T10:17:31Z</time>
      </trkpt>
      <trkpt lat="38.170570" lon="-6.663190">
        <ele>597.6</ele>
        <time>2010-01-15T10:19:57Z</time>
      </trkpt>
      <trkpt lat="38.170600" lon="-6.663460">
        <ele>597.6</ele>
        <time>2010-01-15T10:20:21Z</time>
      </trkpt>
      <trkpt lat="38.170990" lon="-6.664010">
        <ele>612.0</ele>
        <time>2010-01-15T10:21:26Z</time>
      </trkpt>
      <trkpt lat="38.170970" lon="-6.664160">
        <ele>609.1</ele>
        <time>2010-01-15T10:21:41Z</time>
      </trkpt>
      <trkpt lat="38.170970" lon="-6.664200">
        <ele>608.7</ele>
        <time>2010-01-15T10:21:45Z</time>
      </trkpt>
      <trkpt lat="38.171030" lon="-6.664360">
        <ele>609.1</ele>
        <time>2010-01-15T10:21:59Z</time>
      </trkpt>
      <trkpt lat="38.171000" lon="-6.664570">
        <ele>604.8</ele>
        <time>2010-01-15T10:22:13Z</time>
      </trkpt>
      <trkpt lat="38.171020" lon="-6.664580">
        <ele>604.8</ele>
        <time>2010-01-15T10:22:16Z</time>
      </trkpt>
      <trkpt lat="38.171130" lon="-6.664860">
        <ele>604.8</ele>
        <time>2010-01-15T10:22:38Z</time>
      </trkpt>
      <trkpt lat="38.171180" lon="-6.664930">
        <ele>605.8</ele>
        <time>2010-01-15T10:22:54Z</time>
      </trkpt>
      <trkpt lat="38.171180" lon="-6.664930">
        <ele>604.8</ele>
        <time>2010-01-15T10:23:01Z</time>
      </trkpt>
      <trkpt lat="38.171290" lon="-6.665200">
        <ele>607.2</ele>
        <time>2010-01-15T10:23:21Z</time>
      </trkpt>
      <trkpt lat="38.171360" lon="-6.665420">
        <ele>605.8</ele>
        <time>2010-01-15T10:23:36Z</time>
      </trkpt>
      <trkpt lat="38.171370" lon="-6.665460">
        <ele>605.3</ele>
        <time>2010-01-15T10:23:40Z</time>
      </trkpt>
      <trkpt lat="38.171400" lon="-6.665530">
        <ele>605.3</ele>
        <time>2010-01-15T10:23:45Z</time>
      </trkpt>
      <trkpt lat="38.171450" lon="-6.665790">
        <ele>602.9</ele>
        <time>2010-01-15T10:24:04Z</time>
      </trkpt>
      <trkpt lat="38.171590" lon="-6.665990">
        <ele>605.3</ele>
        <time>2010-01-15T10:24:22Z</time>
      </trkpt>
      <trkpt lat="38.171650" lon="-6.666040">
        <ele>605.8</ele>
        <time>2010-01-15T10:24:27Z</time>
      </trkpt>
      <trkpt lat="38.171780" lon="-6.666210">
        <ele>606.7</ele>
        <time>2010-01-15T10:24:43Z</time>
      </trkpt>
      <trkpt lat="38.171910" lon="-6.666390">
        <ele>608.2</ele>
        <time>2010-01-15T10:24:58Z</time>
      </trkpt>
      <trkpt lat="38.171990" lon="-6.666540">
        <ele>607.7</ele>
        <time>2010-01-15T10:25:14Z</time>
      </trkpt>
      <trkpt lat="38.172140" lon="-6.666710">
        <ele>608.2</ele>
        <time>2010-01-15T10:25:30Z</time>
      </trkpt>
      <trkpt lat="38.172320" lon="-6.666980">
        <ele>607.2</ele>
        <time>2010-01-15T10:26:07Z</time>
      </trkpt>
      <trkpt lat="38.172310" lon="-6.666990">
        <ele>607.2</ele>
        <time>2010-01-15T10:26:12Z</time>
      </trkpt>
      <trkpt lat="38.172410" lon="-6.667200">
        <ele>607.2</ele>
        <time>2010-01-15T10:26:29Z</time>
      </trkpt>
      <trkpt lat="38.172420" lon="-6.667540">
        <ele>607.2</ele>
        <time>2010-01-15T10:26:56Z</time>
      </trkpt>
      <trkpt lat="38.172460" lon="-6.667730">
        <ele>606.7</ele>
        <time>2010-01-15T10:27:13Z</time>
      </trkpt>
      <trkpt lat="38.172410" lon="-6.667770">
        <ele>606.2</ele>
        <time>2010-01-15T10:27:17Z</time>
      </trkpt>
      <trkpt lat="38.172430" lon="-6.667920">
        <ele>605.8</ele>
        <time>2010-01-15T10:27:29Z</time>
      </trkpt>
      <trkpt lat="38.172550" lon="-6.668150">
        <ele>608.2</ele>
        <time>2010-01-15T10:27:54Z</time>
      </trkpt>
      <trkpt lat="38.172650" lon="-6.668260">
        <ele>607.2</ele>
        <time>2010-01-15T10:28:25Z</time>
      </trkpt>
      <trkpt lat="38.172640" lon="-6.668440">
        <ele>605.3</ele>
        <time>2010-01-15T10:28:39Z</time>
      </trkpt>
      <trkpt lat="38.172760" lon="-6.668690">
        <ele>605.3</ele>
        <time>2010-01-15T10:29:00Z</time>
      </trkpt>
      <trkpt lat="38.173060" lon="-6.669600">
        <ele>604.8</ele>
        <time>2010-01-15T10:30:18Z</time>
      </trkpt>
      <trkpt lat="38.173000" lon="-6.670040">
        <ele>607.7</ele>
        <time>2010-01-15T10:31:04Z</time>
      </trkpt>
      <trkpt lat="38.172990" lon="-6.670110">
        <ele>609.1</ele>
        <time>2010-01-15T10:31:11Z</time>
      </trkpt>
      <trkpt lat="38.172970" lon="-6.670300">
        <ele>612.0</ele>
        <time>2010-01-15T10:31:28Z</time>
      </trkpt>
      <trkpt lat="38.172960" lon="-6.670400">
        <ele>615.8</ele>
        <time>2010-01-15T10:31:48Z</time>
      </trkpt>
      <trkpt lat="38.172960" lon="-6.670390">
        <ele>613.5</ele>
        <time>2010-01-15T10:32:13Z</time>
      </trkpt>
      <trkpt lat="38.172950" lon="-6.670620">
        <ele>613.0</ele>
        <time>2010-01-15T10:32:37Z</time>
      </trkpt>
      <trkpt lat="38.172930" lon="-6.670700">
        <ele>613.0</ele>
        <time>2010-01-15T10:32:44Z</time>
      </trkpt>
      <trkpt lat="38.172900" lon="-6.670750">
        <ele>613.0</ele>
        <time>2010-01-15T10:32:47Z</time>
      </trkpt>
      <trkpt lat="38.172740" lon="-6.670940">
        <ele>613.5</ele>
        <time>2010-01-15T10:32:59Z</time>
      </trkpt>
      <trkpt lat="38.172750" lon="-6.671030">
        <ele>613.5</ele>
        <time>2010-01-15T10:33:04Z</time>
      </trkpt>
      <trkpt lat="38.172820" lon="-6.671130">
        <ele>613.9</ele>
        <time>2010-01-15T10:33:11Z</time>
      </trkpt>
      <trkpt lat="38.172920" lon="-6.671560">
        <ele>615.4</ele>
        <time>2010-01-15T10:33:41Z</time>
      </trkpt>
      <trkpt lat="38.173070" lon="-6.671870">
        <ele>618.7</ele>
        <time>2010-01-15T10:34:06Z</time>
      </trkpt>
      <trkpt lat="38.173260" lon="-6.672180">
        <ele>621.2</ele>
        <time>2010-01-15T10:34:30Z</time>
      </trkpt>
      <trkpt lat="38.173290" lon="-6.672280">
        <ele>620.7</ele>
        <time>2010-01-15T10:34:40Z</time>
      </trkpt>
      <trkpt lat="38.173310" lon="-6.672320">
        <ele>620.2</ele>
        <time>2010-01-15T10:34:44Z</time>
      </trkpt>
      <trkpt lat="38.173370" lon="-6.672440">
        <ele>619.7</ele>
        <time>2010-01-15T10:34:57Z</time>
      </trkpt>
      <trkpt lat="38.173460" lon="-6.672430">
        <ele>621.6</ele>
        <time>2010-01-15T10:35:58Z</time>
      </trkpt>
      <trkpt lat="38.173400" lon="-6.672400">
        <ele>621.2</ele>
        <time>2010-01-15T10:36:28Z</time>
      </trkpt>
      <trkpt lat="38.173410" lon="-6.672410">
        <ele>621.2</ele>
        <time>2010-01-15T10:36:50Z</time>
      </trkpt>
      <trkpt lat="38.173390" lon="-6.672440">
        <ele>621.2</ele>
        <time>2010-01-15T10:37:11Z</time>
      </trkpt>
      <trkpt lat="38.173360" lon="-6.672380">
        <ele>620.2</ele>
        <time>2010-01-15T10:37:30Z</time>
      </trkpt>
      <trkpt lat="38.173430" lon="-6.672440">
        <ele>618.3</ele>
        <time>2010-01-15T10:37:46Z</time>
      </trkpt>
      <trkpt lat="38.173440" lon="-6.672410">
        <ele>619.2</ele>
        <time>2010-01-15T10:37:54Z</time>
      </trkpt>
      <trkpt lat="38.173630" lon="-6.672500">
        <ele>618.7</ele>
        <time>2010-01-15T10:38:12Z</time>
      </trkpt>
      <trkpt lat="38.173820" lon="-6.672600">
        <ele>618.7</ele>
        <time>2010-01-15T10:38:28Z</time>
      </trkpt>
      <trkpt lat="38.173950" lon="-6.672660">
        <ele>619.2</ele>
        <time>2010-01-15T10:38:43Z</time>
      </trkpt>
      <trkpt lat="38.174020" lon="-6.672710">
        <ele>622.1</ele>
        <time>2010-01-15T10:39:03Z</time>
      </trkpt>
      <trkpt lat="38.174190" lon="-6.672950">
        <ele>620.2</ele>
        <time>2010-01-15T10:40:21Z</time>
      </trkpt>
      <trkpt lat="38.174240" lon="-6.673030">
        <ele>619.7</ele>
        <time>2010-01-15T10:40:30Z</time>
      </trkpt>
      <trkpt lat="38.174420" lon="-6.673260">
        <ele>621.2</ele>
        <time>2010-01-15T10:40:53Z</time>
      </trkpt>
      <trkpt lat="38.174580" lon="-6.673380">
        <ele>623.1</ele>
        <time>2010-01-15T10:41:07Z</time>
      </trkpt>
      <trkpt lat="38.174700" lon="-6.673440">
        <ele>625.0</ele>
        <time>2010-01-15T10:41:15Z</time>
      </trkpt>
      <trkpt lat="38.174740" lon="-6.673450">
        <ele>625.5</ele>
        <time>2010-01-15T10:41:18Z</time>
      </trkpt>
      <trkpt lat="38.174990" lon="-6.673560">
        <ele>627.4</ele>
        <time>2010-01-15T10:41:37Z</time>
      </trkpt>
      <trkpt lat="38.175210" lon="-6.673650">
        <ele>627.4</ele>
        <time>2010-01-15T10:41:55Z</time>
      </trkpt>
      <trkpt lat="38.175460" lon="-6.673770">
        <ele>627.9</ele>
        <time>2010-01-15T10:42:15Z</time>
      </trkpt>
      <trkpt lat="38.175520" lon="-6.673830">
        <ele>626.4</ele>
        <time>2010-01-15T10:42:23Z</time>
      </trkpt>
      <trkpt lat="38.175560" lon="-6.673840">
        <ele>626.9</ele>
        <time>2010-01-15T10:42:24Z</time>
      </trkpt>
      <trkpt lat="38.175720" lon="-6.673990">
        <ele>627.9</ele>
        <time>2010-01-15T10:42:42Z</time>
      </trkpt>
      <trkpt lat="38.175900" lon="-6.674240">
        <ele>626.4</ele>
        <time>2010-01-15T10:43:03Z</time>
      </trkpt>
      <trkpt lat="38.176020" lon="-6.674460">
        <ele>625.5</ele>
        <time>2010-01-15T10:43:21Z</time>
      </trkpt>
      <trkpt lat="38.176150" lon="-6.674690">
        <ele>626.0</ele>
        <time>2010-01-15T10:43:41Z</time>
      </trkpt>
      <trkpt lat="38.176300" lon="-6.674980">
        <ele>626.9</ele>
        <time>2010-01-15T10:44:07Z</time>
      </trkpt>
      <trkpt lat="38.176440" lon="-6.675130">
        <ele>627.9</ele>
        <time>2010-01-15T10:44:23Z</time>
      </trkpt>
      <trkpt lat="38.176690" lon="-6.675290">
        <ele>628.3</ele>
        <time>2010-01-15T10:44:42Z</time>
      </trkpt>
      <trkpt lat="38.176870" lon="-6.675400">
        <ele>626.4</ele>
        <time>2010-01-15T10:45:01Z</time>
      </trkpt>
      <trkpt lat="38.177020" lon="-6.675470">
        <ele>627.4</ele>
        <time>2010-01-15T10:45:17Z</time>
      </trkpt>
      <trkpt lat="38.177200" lon="-6.675550">
        <ele>626.9</ele>
        <time>2010-01-15T10:45:36Z</time>
      </trkpt>
      <trkpt lat="38.177410" lon="-6.675670">
        <ele>626.4</ele>
        <time>2010-01-15T10:45:56Z</time>
      </trkpt>
      <trkpt lat="38.177570" lon="-6.675790">
        <ele>628.3</ele>
        <time>2010-01-15T10:46:17Z</time>
      </trkpt>
      <trkpt lat="38.177760" lon="-6.675880">
        <ele>627.4</ele>
        <time>2010-01-15T10:46:35Z</time>
      </trkpt>
      <trkpt lat="38.177940" lon="-6.675930">
        <ele>628.3</ele>
        <time>2010-01-15T10:46:53Z</time>
      </trkpt>
      <trkpt lat="38.177990" lon="-6.675990">
        <ele>626.0</ele>
        <time>2010-01-15T10:47:13Z</time>
      </trkpt>
      <trkpt lat="38.178050" lon="-6.675980">
        <ele>626.4</ele>
        <time>2010-01-15T10:48:17Z</time>
      </trkpt>
      <trkpt lat="38.178080" lon="-6.675990">
        <ele>626.4</ele>
        <time>2010-01-15T10:48:37Z</time>
      </trkpt>
      <trkpt lat="38.178150" lon="-6.675990">
        <ele>628.3</ele>
        <time>2010-01-15T10:48:54Z</time>
      </trkpt>
      <trkpt lat="38.178140" lon="-6.676000">
        <ele>628.3</ele>
        <time>2010-01-15T10:49:26Z</time>
      </trkpt>
      <trkpt lat="38.178060" lon="-6.675960">
        <ele>624.5</ele>
        <time>2010-01-15T10:49:43Z</time>
      </trkpt>
      <trkpt lat="38.178080" lon="-6.675980">
        <ele>627.4</ele>
        <time>2010-01-15T10:49:58Z</time>
      </trkpt>
      <trkpt lat="38.178130" lon="-6.675970">
        <ele>626.9</ele>
        <time>2010-01-15T10:50:14Z</time>
      </trkpt>
      <trkpt lat="38.178240" lon="-6.675900">
        <ele>626.4</ele>
        <time>2010-01-15T10:50:32Z</time>
      </trkpt>
      <trkpt lat="38.178360" lon="-6.675890">
        <ele>626.0</ele>
        <time>2010-01-15T10:50:49Z</time>
      </trkpt>
      <trkpt lat="38.178510" lon="-6.675860">
        <ele>624.5</ele>
        <time>2010-01-15T10:51:30Z</time>
      </trkpt>
      <trkpt lat="38.178690" lon="-6.675830">
        <ele>626.0</ele>
        <time>2010-01-15T10:51:54Z</time>
      </trkpt>
      <trkpt lat="38.178860" lon="-6.675820">
        <ele>628.8</ele>
        <time>2010-01-15T10:52:12Z</time>
      </trkpt>
      <trkpt lat="38.179040" lon="-6.675790">
        <ele>626.9</ele>
        <time>2010-01-15T10:52:35Z</time>
      </trkpt>
      <trkpt lat="38.179190" lon="-6.675830">
        <ele>628.3</ele>
        <time>2010-01-15T10:52:53Z</time>
      </trkpt>
      <trkpt lat="38.179290" lon="-6.675880">
        <ele>627.9</ele>
        <time>2010-01-15T10:53:11Z</time>
      </trkpt>
      <trkpt lat="38.179340" lon="-6.675890">
        <ele>628.8</ele>
        <time>2010-01-15T10:53:27Z</time>
      </trkpt>
      <trkpt lat="38.179350" lon="-6.675950">
        <ele>630.8</ele>
        <time>2010-01-15T10:54:02Z</time>
      </trkpt>
      <trkpt lat="38.179420" lon="-6.676020">
        <ele>630.8</ele>
        <time>2010-01-15T10:54:12Z</time>
      </trkpt>
      <trkpt lat="38.179430" lon="-6.676080">
        <ele>630.8</ele>
        <time>2010-01-15T10:54:17Z</time>
      </trkpt>
      <trkpt lat="38.179430" lon="-6.676240">
        <ele>630.3</ele>
        <time>2010-01-15T10:54:31Z</time>
      </trkpt>
      <trkpt lat="38.179430" lon="-6.676340">
        <ele>629.8</ele>
        <time>2010-01-15T10:54:48Z</time>
      </trkpt>
      <trkpt lat="38.179460" lon="-6.676370">
        <ele>632.7</ele>
        <time>2010-01-15T10:55:11Z</time>
      </trkpt>
      <trkpt lat="38.179430" lon="-6.676350">
        <ele>629.8</ele>
        <time>2010-01-15T10:55:35Z</time>
      </trkpt>
      <trkpt lat="38.179430" lon="-6.676310">
        <ele>631.7</ele>
        <time>2010-01-15T10:55:56Z</time>
      </trkpt>
      <trkpt lat="38.179540" lon="-6.676370">
        <ele>637.0</ele>
        <time>2010-01-15T10:56:08Z</time>
      </trkpt>
      <trkpt lat="38.179450" lon="-6.676400">
        <ele>633.6</ele>
        <time>2010-01-15T10:56:28Z</time>
      </trkpt>
      <trkpt lat="38.179480" lon="-6.676290">
        <ele>634.6</ele>
        <time>2010-01-15T10:57:37Z</time>
      </trkpt>
      <trkpt lat="38.179470" lon="-6.676090">
        <ele>634.1</ele>
        <time>2010-01-15T10:57:54Z</time>
      </trkpt>
      <trkpt lat="38.179480" lon="-6.675870">
        <ele>634.6</ele>
        <time>2010-01-15T10:58:12Z</time>
      </trkpt>
      <trkpt lat="38.179460" lon="-6.675640">
        <ele>634.1</ele>
        <time>2010-01-15T10:58:28Z</time>
      </trkpt>
      <trkpt lat="38.179460" lon="-6.675600">
        <ele>630.8</ele>
        <time>2010-01-15T10:58:39Z</time>
      </trkpt>
      <trkpt lat="38.179400" lon="-6.675200">
        <ele>629.3</ele>
        <time>2010-01-15T10:59:05Z</time>
      </trkpt>
      <trkpt lat="38.179390" lon="-6.675040">
        <ele>631.2</ele>
        <time>2010-01-15T10:59:15Z</time>
      </trkpt>
      <trkpt lat="38.179380" lon="-6.674940">
        <ele>631.2</ele>
        <time>2010-01-15T10:59:28Z</time>
      </trkpt>
      <trkpt lat="38.179390" lon="-6.674970">
        <ele>628.3</ele>
        <time>2010-01-15T11:01:57Z</time>
      </trkpt>
      <trkpt lat="38.179380" lon="-6.674940">
        <ele>630.8</ele>
        <time>2010-01-15T11:02:11Z</time>
      </trkpt>
      <trkpt lat="38.179360" lon="-6.674920">
        <ele>633.2</ele>
        <time>2010-01-15T11:02:31Z</time>
      </trkpt>
      <trkpt lat="38.179400" lon="-6.674830">
        <ele>632.2</ele>
        <time>2010-01-15T11:02:47Z</time>
      </trkpt>
      <trkpt lat="38.179380" lon="-6.674830">
        <ele>632.7</ele>
        <time>2010-01-15T11:03:09Z</time>
      </trkpt>
      <trkpt lat="38.179300" lon="-6.674590">
        <ele>635.1</ele>
        <time>2010-01-15T11:03:28Z</time>
      </trkpt>
      <trkpt lat="38.179270" lon="-6.674410">
        <ele>636.1</ele>
        <time>2010-01-15T11:03:44Z</time>
      </trkpt>
      <trkpt lat="38.179190" lon="-6.674160">
        <ele>635.6</ele>
        <time>2010-01-15T11:03:59Z</time>
      </trkpt>
      <trkpt lat="38.179100" lon="-6.673890">
        <ele>633.6</ele>
        <time>2010-01-15T11:04:19Z</time>
      </trkpt>
      <trkpt lat="38.179030" lon="-6.673700">
        <ele>631.7</ele>
        <time>2010-01-15T11:04:34Z</time>
      </trkpt>
      <trkpt lat="38.178910" lon="-6.673510">
        <ele>629.3</ele>
        <time>2010-01-15T11:04:53Z</time>
      </trkpt>
      <trkpt lat="38.178790" lon="-6.673280">
        <ele>626.4</ele>
        <time>2010-01-15T11:05:13Z</time>
      </trkpt>
      <trkpt lat="38.178720" lon="-6.673020">
        <ele>623.1</ele>
        <time>2010-01-15T11:05:31Z</time>
      </trkpt>
      <trkpt lat="38.178670" lon="-6.672740">
        <ele>621.2</ele>
        <time>2010-01-15T11:05:48Z</time>
      </trkpt>
      <trkpt lat="38.178620" lon="-6.672490">
        <ele>620.2</ele>
        <time>2010-01-15T11:06:05Z</time>
      </trkpt>
      <trkpt lat="38.178570" lon="-6.672230">
        <ele>621.2</ele>
        <time>2010-01-15T11:06:19Z</time>
      </trkpt>
      <trkpt lat="38.178560" lon="-6.672070">
        <ele>620.7</ele>
        <time>2010-01-15T11:06:34Z</time>
      </trkpt>
      <trkpt lat="38.178520" lon="-6.671880">
        <ele>621.6</ele>
        <time>2010-01-15T11:06:46Z</time>
      </trkpt>
      <trkpt lat="38.178470" lon="-6.671660">
        <ele>622.1</ele>
        <time>2010-01-15T11:07:01Z</time>
      </trkpt>
      <trkpt lat="38.178360" lon="-6.671410">
        <ele>621.2</ele>
        <time>2010-01-15T11:07:20Z</time>
      </trkpt>
      <trkpt lat="38.178230" lon="-6.671210">
        <ele>622.6</ele>
        <time>2010-01-15T11:07:40Z</time>
      </trkpt>
      <trkpt lat="38.178060" lon="-6.670990">
        <ele>623.1</ele>
        <time>2010-01-15T11:08:01Z</time>
      </trkpt>
      <trkpt lat="38.177940" lon="-6.670820">
        <ele>623.6</ele>
        <time>2010-01-15T11:08:18Z</time>
      </trkpt>
      <trkpt lat="38.177830" lon="-6.670590">
        <ele>625.5</ele>
        <time>2010-01-15T11:08:33Z</time>
      </trkpt>
      <trkpt lat="38.177730" lon="-6.670380">
        <ele>624.5</ele>
        <time>2010-01-15T11:08:49Z</time>
      </trkpt>
      <trkpt lat="38.177630" lon="-6.670130">
        <ele>625.5</ele>
        <time>2010-01-15T11:09:07Z</time>
      </trkpt>
      <trkpt lat="38.177610" lon="-6.670160">
        <ele>622.1</ele>
        <time>2010-01-15T11:09:24Z</time>
      </trkpt>
      <trkpt lat="38.177580" lon="-6.670020">
        <ele>622.1</ele>
        <time>2010-01-15T11:10:01Z</time>
      </trkpt>
      <trkpt lat="38.177520" lon="-6.669880">
        <ele>623.6</ele>
        <time>2010-01-15T11:10:17Z</time>
      </trkpt>
      <trkpt lat="38.177420" lon="-6.669640">
        <ele>622.6</ele>
        <time>2010-01-15T11:10:37Z</time>
      </trkpt>
      <trkpt lat="38.177330" lon="-6.669340">
        <ele>623.1</ele>
        <time>2010-01-15T11:11:00Z</time>
      </trkpt>
      <trkpt lat="38.177250" lon="-6.668980">
        <ele>622.1</ele>
        <time>2010-01-15T11:11:23Z</time>
      </trkpt>
      <trkpt lat="38.177150" lon="-6.668710">
        <ele>621.6</ele>
        <time>2010-01-15T11:11:43Z</time>
      </trkpt>
      <trkpt lat="38.177090" lon="-6.668510">
        <ele>619.2</ele>
        <time>2010-01-15T11:12:01Z</time>
      </trkpt>
      <trkpt lat="38.176930" lon="-6.668220">
        <ele>618.3</ele>
        <time>2010-01-15T11:12:25Z</time>
      </trkpt>
      <trkpt lat="38.176710" lon="-6.668040">
        <ele>615.8</ele>
        <time>2010-01-15T11:12:48Z</time>
      </trkpt>
      <trkpt lat="38.176660" lon="-6.667890">
        <ele>614.4</ele>
        <time>2010-01-15T11:12:59Z</time>
      </trkpt>
      <trkpt lat="38.176670" lon="-6.667840">
        <ele>613.9</ele>
        <time>2010-01-15T11:13:03Z</time>
      </trkpt>
      <trkpt lat="38.176690" lon="-6.667650">
        <ele>607.7</ele>
        <time>2010-01-15T11:13:18Z</time>
      </trkpt>
      <trkpt lat="38.176650" lon="-6.667430">
        <ele>604.3</ele>
        <time>2010-01-15T11:13:35Z</time>
      </trkpt>
      <trkpt lat="38.176550" lon="-6.667270">
        <ele>605.3</ele>
        <time>2010-01-15T11:13:56Z</time>
      </trkpt>
      <trkpt lat="38.176510" lon="-6.667160">
        <ele>606.7</ele>
        <time>2010-01-15T11:14:16Z</time>
      </trkpt>
      <trkpt lat="38.176440" lon="-6.666960">
        <ele>604.8</ele>
        <time>2010-01-15T11:16:36Z</time>
      </trkpt>
      <trkpt lat="38.176300" lon="-6.666720">
        <ele>600.5</ele>
        <time>2010-01-15T11:16:55Z</time>
      </trkpt>
      <trkpt lat="38.176180" lon="-6.666530">
        <ele>599.5</ele>
        <time>2010-01-15T11:17:10Z</time>
      </trkpt>
      <trkpt lat="38.176100" lon="-6.666390">
        <ele>598.6</ele>
        <time>2010-01-15T11:17:22Z</time>
      </trkpt>
      <trkpt lat="38.175960" lon="-6.666090">
        <ele>596.6</ele>
        <time>2010-01-15T11:17:45Z</time>
      </trkpt>
      <trkpt lat="38.175860" lon="-6.665800">
        <ele>599.0</ele>
        <time>2010-01-15T11:18:04Z</time>
      </trkpt>
      <trkpt lat="38.175700" lon="-6.665290">
        <ele>597.6</ele>
        <time>2010-01-15T11:18:43Z</time>
      </trkpt>
      <trkpt lat="38.175630" lon="-6.665050">
        <ele>598.1</ele>
        <time>2010-01-15T11:19:01Z</time>
      </trkpt>
      <trkpt lat="38.175540" lon="-6.664750">
        <ele>596.2</ele>
        <time>2010-01-15T11:19:25Z</time>
      </trkpt>
      <trkpt lat="38.175390" lon="-6.664490">
        <ele>594.2</ele>
        <time>2010-01-15T11:19:45Z</time>
      </trkpt>
      <trkpt lat="38.175230" lon="-6.664150">
        <ele>592.8</ele>
        <time>2010-01-15T11:20:10Z</time>
      </trkpt>
      <trkpt lat="38.175110" lon="-6.663880">
        <ele>591.3</ele>
        <time>2010-01-15T11:20:30Z</time>
      </trkpt>
      <trkpt lat="38.175050" lon="-6.663760">
        <ele>592.8</ele>
        <time>2010-01-15T11:20:42Z</time>
      </trkpt>
      <trkpt lat="38.175040" lon="-6.663680">
        <ele>586.5</ele>
        <time>2010-01-15T11:21:12Z</time>
      </trkpt>
      <trkpt lat="38.174920" lon="-6.663410">
        <ele>588.9</ele>
        <time>2010-01-15T11:21:33Z</time>
      </trkpt>
      <trkpt lat="38.174800" lon="-6.663150">
        <ele>589.9</ele>
        <time>2010-01-15T11:21:52Z</time>
      </trkpt>
      <trkpt lat="38.174490" lon="-6.662630">
        <ele>586.1</ele>
        <time>2010-01-15T11:22:33Z</time>
      </trkpt>
      <trkpt lat="38.174380" lon="-6.662380">
        <ele>586.1</ele>
        <time>2010-01-15T11:22:48Z</time>
      </trkpt>
      <trkpt lat="38.174280" lon="-6.662210">
        <ele>586.1</ele>
        <time>2010-01-15T11:23:01Z</time>
      </trkpt>
      <trkpt lat="38.174190" lon="-6.661920">
        <ele>584.6</ele>
        <time>2010-01-15T11:23:21Z</time>
      </trkpt>
      <trkpt lat="38.174150" lon="-6.661700">
        <ele>585.1</ele>
        <time>2010-01-15T11:23:39Z</time>
      </trkpt>
      <trkpt lat="38.173990" lon="-6.661530">
        <ele>585.1</ele>
        <time>2010-01-15T11:23:59Z</time>
      </trkpt>
      <trkpt lat="38.173830" lon="-6.661380">
        <ele>584.6</ele>
        <time>2010-01-15T11:24:19Z</time>
      </trkpt>
      <trkpt lat="38.173670" lon="-6.661200">
        <ele>585.1</ele>
        <time>2010-01-15T11:24:41Z</time>
      </trkpt>
      <trkpt lat="38.173620" lon="-6.661170">
        <ele>582.2</ele>
        <time>2010-01-15T11:24:56Z</time>
      </trkpt>
      <trkpt lat="38.173430" lon="-6.660960">
        <ele>585.6</ele>
        <time>2010-01-15T11:25:13Z</time>
      </trkpt>
      <trkpt lat="38.173330" lon="-6.660820">
        <ele>587.5</ele>
        <time>2010-01-15T11:25:32Z</time>
      </trkpt>
      <trkpt lat="38.173200" lon="-6.660740">
        <ele>588.9</ele>
        <time>2010-01-15T11:25:47Z</time>
      </trkpt>
      <trkpt lat="38.173150" lon="-6.660700">
        <ele>589.4</ele>
        <time>2010-01-15T11:25:59Z</time>
      </trkpt>
      <trkpt lat="38.173130" lon="-6.660690">
        <ele>589.4</ele>
        <time>2010-01-15T11:26:02Z</time>
      </trkpt>
      <trkpt lat="38.172970" lon="-6.660540">
        <ele>588.9</ele>
        <time>2010-01-15T11:26:20Z</time>
      </trkpt>
      <trkpt lat="38.172940" lon="-6.660460">
        <ele>589.4</ele>
        <time>2010-01-15T11:26:34Z</time>
      </trkpt>
      <trkpt lat="38.172870" lon="-6.660350">
        <ele>587.5</ele>
        <time>2010-01-15T11:26:51Z</time>
      </trkpt>
      <trkpt lat="38.172850" lon="-6.660280">
        <ele>587.0</ele>
        <time>2010-01-15T11:26:57Z</time>
      </trkpt>
      <trkpt lat="38.172830" lon="-6.660200">
        <ele>585.6</ele>
        <time>2010-01-15T11:27:16Z</time>
      </trkpt>
      <trkpt lat="38.172830" lon="-6.660200">
        <ele>582.2</ele>
        <time>2010-01-15T11:29:00Z</time>
      </trkpt>
      <trkpt lat="38.172810" lon="-6.660150">
        <ele>582.2</ele>
        <time>2010-01-15T11:29:27Z</time>
      </trkpt>
      <trkpt lat="38.172780" lon="-6.659960">
        <ele>582.2</ele>
        <time>2010-01-15T11:29:42Z</time>
      </trkpt>
      <trkpt lat="38.172780" lon="-6.659860">
        <ele>583.2</ele>
        <time>2010-01-15T11:29:58Z</time>
      </trkpt>
      <trkpt lat="38.172710" lon="-6.659560">
        <ele>583.2</ele>
        <time>2010-01-15T11:30:17Z</time>
      </trkpt>
      <trkpt lat="38.172700" lon="-6.659350">
        <ele>584.1</ele>
        <time>2010-01-15T11:30:36Z</time>
      </trkpt>
      <trkpt lat="38.172670" lon="-6.659210">
        <ele>582.7</ele>
        <time>2010-01-15T11:30:52Z</time>
      </trkpt>
      <trkpt lat="38.172660" lon="-6.659020">
        <ele>582.7</ele>
        <time>2010-01-15T11:31:12Z</time>
      </trkpt>
      <trkpt lat="38.172700" lon="-6.658750">
        <ele>583.2</ele>
        <time>2010-01-15T11:31:34Z</time>
      </trkpt>
      <trkpt lat="38.172710" lon="-6.658620">
        <ele>582.7</ele>
        <time>2010-01-15T11:31:50Z</time>
      </trkpt>
      <trkpt lat="38.172750" lon="-6.658610">
        <ele>583.7</ele>
        <time>2010-01-15T11:32:36Z</time>
      </trkpt>
      <trkpt lat="38.172750" lon="-6.658570">
        <ele>581.3</ele>
        <time>2010-01-15T11:32:50Z</time>
      </trkpt>
      <trkpt lat="38.172890" lon="-6.657880">
        <ele>583.7</ele>
        <time>2010-01-15T11:36:32Z</time>
      </trkpt>
      <trkpt lat="38.172950" lon="-6.657670">
        <ele>584.1</ele>
        <time>2010-01-15T11:36:57Z</time>
      </trkpt>
      <trkpt lat="38.172449" lon="-6.657519">
        <ele>583.2</ele>
        <time>2010-01-15T11:37:17Z</time>
      </trkpt>
      <trkpt lat="38.172440" lon="-6.657530">
        <ele>580.3</ele>
        <time>2010-01-15T11:48:29Z</time>
      </trkpt>
      <trkpt lat="38.172190" lon="-6.657650">
        <ele>580.3</ele>
        <time>2010-01-15T11:48:54Z</time>
      </trkpt>
      <trkpt lat="38.171980" lon="-6.657730">
        <ele>577.4</ele>
        <time>2010-01-15T11:49:14Z</time>
      </trkpt>
      <trkpt lat="38.171670" lon="-6.657880">
        <ele>574.0</ele>
        <time>2010-01-15T11:49:44Z</time>
      </trkpt>
      <trkpt lat="38.171400" lon="-6.658060">
        <ele>575.0</ele>
        <time>2010-01-15T11:50:06Z</time>
      </trkpt>
      <trkpt lat="38.171380" lon="-6.658070">
        <ele>574.5</ele>
        <time>2010-01-15T11:50:09Z</time>
      </trkpt>
      <trkpt lat="38.170850" lon="-6.658150">
        <ele>579.3</ele>
        <time>2010-01-15T11:50:44Z</time>
      </trkpt>
      <trkpt lat="38.170620" lon="-6.658540">
        <ele>573.6</ele>
        <time>2010-01-15T11:51:34Z</time>
      </trkpt>
      <trkpt lat="38.170550" lon="-6.659020">
        <ele>575.0</ele>
        <time>2010-01-15T11:51:57Z</time>
      </trkpt>
      <trkpt lat="38.170500" lon="-6.659380">
        <ele>576.4</ele>
        <time>2010-01-15T11:52:13Z</time>
      </trkpt>
      <trkpt lat="38.170500" lon="-6.659530">
        <ele>576.0</ele>
        <time>2010-01-15T11:52:26Z</time>
      </trkpt>
    </trkseg>
  </trk></gpx>